createdAt,value
2022-12-23T00:01:01.587Z,78.86
2022-12-23T00:03:30.222Z,78.43
2022-12-23T00:05:58.077Z,78.47
2022-12-23T00:08:26.019Z,78.79
2022-12-23T00:10:54.688Z,78.86
2022-12-23T00:13:39.948Z,78.10
2022-12-23T00:16:12.118Z,77.31
2022-12-23T00:18:39.197Z,77.07
2022-12-23T00:21:09.408Z,76.64
2022-12-23T00:23:38.761Z,76.46
2022-12-23T00:26:05.870Z,75.91
2022-12-23T00:28:32.487Z,75.93
2022-12-23T00:31:04.453Z,76.27
2022-12-23T00:33:39.045Z,76.15
2022-12-23T00:36:19.234Z,75.78
2022-12-23T00:39:04.409Z,75.51
2022-12-23T00:41:49.608Z,75.61
2022-12-23T00:44:16.161Z,75.69
2022-12-23T00:46:42.719Z,75.88
2022-12-23T00:49:30.933Z,75.73
2022-12-23T00:51:57.544Z,75.87
2022-12-23T00:54:24.229Z,75.58
2022-12-23T00:56:50.709Z,75.44
2022-12-23T00:59:18.393Z,76.97
2022-12-23T01:02:03.588Z,77.09
2022-12-23T01:04:49.172Z,77.80
2022-12-23T01:07:15.650Z,78.47
2022-12-23T01:09:42.088Z,78.99
2022-12-23T01:12:08.693Z,78.85
2022-12-23T01:14:35.751Z,79.07
2022-12-23T01:17:02.635Z,79.09
2022-12-23T01:19:29.159Z,79.76
2022-12-23T01:21:55.809Z,79.11
2022-12-23T01:24:22.416Z,78.67
2022-12-23T01:26:48.836Z,79.83
2022-12-23T01:29:15.309Z,79.80
2022-12-23T01:31:41.779Z,80.19
2022-12-23T01:34:08.349Z,79.69
2022-12-23T01:36:34.809Z,79.80
2022-12-23T01:39:01.376Z,80.47
2022-12-23T01:41:48.917Z,80.36
2022-12-23T01:44:46.509Z,79.86
2022-12-23T01:47:37.088Z,80.28
2022-12-23T01:50:10.865Z,80.54
2022-12-23T01:52:50.130Z,80.41
2022-12-23T01:55:20.763Z,81.24
2022-12-23T01:57:48.297Z,80.79
2022-12-23T02:00:34.210Z,82.08
2022-12-23T02:03:18.967Z,81.95
2022-12-23T02:09:37.728Z,81.39
2022-12-23T02:12:25.711Z,81.23
2022-12-23T02:15:38.932Z,81.89
2022-12-23T02:18:36.102Z,81.09
2022-12-23T02:21:24.204Z,82.14
2022-12-23T02:24:07.901Z,81.41
2022-12-23T02:26:58.906Z,82.46
2022-12-23T02:29:31.052Z,82.18
2022-12-23T02:32:01.962Z,83.02
2022-12-23T02:34:43.531Z,82.74
2022-12-23T02:37:24.697Z,81.27
2022-12-23T02:40:00.166Z,80.33
2022-12-23T02:42:43.289Z,80.13
2022-12-23T02:45:16.313Z,79.84
2022-12-23T02:47:59.567Z,79.93
2022-12-23T02:50:36.706Z,80.47
2022-12-23T02:53:28.791Z,80.34
2022-12-23T02:55:57.093Z,79.94
2022-12-23T02:58:31.454Z,80.13
2022-12-23T03:00:59.976Z,80.80
2022-12-23T03:03:26.942Z,81.63
2022-12-23T03:05:54.677Z,81.67
2022-12-23T03:08:29.304Z,81.22
2022-12-23T03:11:16.363Z,81.29
2022-12-23T03:13:56.152Z,81.73
2022-12-23T03:16:26.943Z,81.62
2022-12-23T03:19:02.150Z,81.06
2022-12-23T03:21:37.649Z,81.83
2022-12-23T03:24:31.764Z,82.85
2022-12-23T03:27:22.544Z,82.33
2022-12-23T03:30:00.037Z,82.64
2022-12-23T03:32:29.789Z,83.22
2022-12-23T03:34:59.071Z,84.28
2022-12-23T03:37:27.426Z,82.69
2022-12-23T03:40:04.184Z,82.14
2022-12-23T03:42:35.906Z,81.59
2022-12-23T03:45:38.274Z,80.91
2022-12-23T03:48:05.373Z,81.13
2022-12-23T03:50:34.051Z,80.89
2022-12-23T03:53:16.705Z,80.14
2022-12-23T03:55:51.622Z,80.15
2022-12-23T03:58:47.108Z,80.42
2022-12-23T04:01:37.703Z,80.30
2022-12-23T04:04:11.972Z,81.64
2022-12-23T04:06:43.855Z,82.03
2022-12-23T04:09:15.389Z,82.32
2022-12-23T04:11:45.086Z,82.63
2022-12-23T04:14:17.502Z,82.58
2022-12-23T04:16:44.470Z,82.01
2022-12-23T04:19:10.972Z,82.45
2022-12-23T04:21:37.662Z,83.12
2022-12-23T04:24:04.253Z,82.02
2022-12-23T04:26:30.821Z,81.24
2022-12-23T04:28:57.244Z,81.08
2022-12-23T04:31:23.865Z,81.87
2022-12-23T04:33:50.403Z,81.40
2022-12-23T04:36:16.985Z,81.37
2022-12-23T04:38:43.429Z,80.64
2022-12-23T04:41:09.871Z,80.64
2022-12-23T04:43:36.411Z,80.23
2022-12-23T04:46:03.033Z,79.87
2022-12-23T04:48:29.472Z,80.54
2022-12-23T04:50:55.991Z,80.47
2022-12-23T04:53:22.464Z,80.10
2022-12-23T04:55:52.127Z,81.46
2022-12-23T04:58:21.930Z,81.78
2022-12-23T05:00:48.480Z,82.01
2022-12-23T05:03:15.101Z,81.58
2022-12-23T05:05:43.956Z,81.05
2022-12-23T05:30:29.767Z,81.69
2022-12-23T05:32:57.556Z,81.48
2022-12-23T05:46:04.923Z,81.28
2022-12-23T05:48:31.466Z,80.71
2022-12-23T05:50:57.941Z,80.41
2022-12-23T05:53:24.642Z,81.17
2022-12-23T05:55:51.210Z,80.88
2022-12-23T05:58:17.744Z,80.35
2022-12-23T06:00:44.647Z,80.41
2022-12-23T06:03:11.945Z,80.38
2022-12-23T06:05:39.962Z,80.35
2022-12-23T06:08:06.441Z,80.78
2022-12-23T06:10:33.100Z,80.74
2022-12-23T06:12:59.561Z,80.49
2022-12-23T06:15:27.122Z,80.02
2022-12-23T06:25:59.921Z,79.46
2022-12-23T06:59:18.132Z,79.41
2022-12-23T07:01:44.610Z,79.21
2022-12-23T07:09:27.857Z,79.28
2022-12-23T07:20:34.970Z,79.86
2022-12-23T07:23:02.076Z,79.66
2022-12-23T07:25:28.769Z,79.92
2022-12-23T07:27:55.669Z,80.77
2022-12-23T07:30:23.260Z,80.33
2022-12-23T07:32:53.072Z,79.86
2022-12-23T07:35:19.706Z,80.49
2022-12-23T07:37:50.617Z,80.36
2022-12-23T07:40:17.765Z,80.34
2022-12-23T07:42:46.604Z,80.44
2022-12-23T07:45:13.386Z,80.63
2022-12-23T08:09:50.728Z,80.73
2022-12-23T08:23:27.669Z,80.10
2022-12-23T08:28:53.400Z,81.03
2022-12-23T09:12:23.044Z,78.57
2022-12-23T09:17:24.926Z,78.56
2022-12-23T09:28:11.872Z,78.40
2022-12-23T09:30:38.383Z,78.78
2022-12-23T09:33:04.935Z,79.58
2022-12-23T09:35:31.485Z,79.71
2022-12-23T09:37:57.928Z,79.49
2022-12-23T09:40:24.422Z,78.61
2022-12-23T13:56:35.354Z,78.01
2022-12-23T15:01:20.738Z,75.60
2022-12-23T15:03:54.602Z,75.48
2022-12-23T15:06:32.707Z,75.97
2022-12-23T15:08:59.257Z,76.51
2022-12-23T15:11:30.017Z,76.40
2022-12-23T15:13:59.935Z,75.70
2022-12-23T15:16:36.747Z,75.13
2022-12-23T15:19:20.618Z,75.53
2022-12-23T15:24:22.648Z,74.96
2022-12-23T15:27:24.460Z,75.25
2022-12-23T15:29:47.425Z,75.70
2022-12-23T15:32:14.022Z,75.27
2022-12-23T15:34:41.470Z,75.22
2022-12-23T15:37:12.443Z,75.63
2022-12-23T15:39:44.912Z,75.11
2022-12-23T15:42:31.240Z,74.84
2022-12-23T15:44:59.464Z,74.46
2022-12-23T15:47:36.287Z,74.63
2022-12-23T15:50:11.794Z,74.81
2022-12-23T15:55:25.299Z,75.30
2022-12-23T16:00:36.586Z,76.05
2022-12-23T16:03:07.747Z,75.30
2022-12-23T16:05:39.089Z,75.26
2022-12-23T16:08:15.972Z,76.35
2022-12-23T16:10:55.846Z,76.40
2022-12-23T16:13:23.334Z,75.96
2022-12-23T16:15:49.854Z,76.43
2022-12-23T16:18:19.388Z,76.24
2022-12-23T16:29:40.934Z,76.61
2022-12-23T16:40:14.083Z,74.42
2022-12-23T17:11:54.156Z,74.29
2022-12-23T17:19:58.411Z,74.22
2022-12-23T17:27:45.415Z,73.73
2022-12-23T17:33:16.249Z,73.22
2022-12-23T17:38:17.906Z,74.23
2022-12-23T17:40:47.545Z,73.98
2022-12-23T17:43:16.305Z,73.83
2022-12-23T17:51:22.761Z,74.32
2022-12-23T17:53:55.272Z,74.10
2022-12-23T17:56:25.523Z,74.00
2022-12-23T17:58:52.033Z,75.01
2022-12-23T18:01:23.205Z,74.89
2022-12-23T18:03:49.970Z,74.34
2022-12-23T18:06:20.198Z,74.23
2022-12-23T18:08:47.894Z,73.80
2022-12-23T18:11:44.788Z,74.78
2022-12-23T18:14:23.753Z,74.28
2022-12-23T18:16:50.449Z,74.67
2022-12-23T18:19:19.645Z,74.81
2022-12-23T18:21:46.538Z,74.46
2022-12-23T18:24:13.069Z,74.29
2022-12-23T18:26:39.722Z,74.94
2022-12-23T18:29:06.154Z,75.35
2022-12-23T18:31:32.858Z,75.26
2022-12-23T18:34:00.114Z,75.02
2022-12-23T18:36:32.860Z,74.92
2022-12-23T18:38:59.817Z,75.11
2022-12-23T18:41:27.186Z,74.73
2022-12-23T18:43:54.272Z,74.98
2022-12-23T18:46:20.905Z,74.90
2022-12-23T18:48:47.704Z,75.68
2022-12-23T18:51:15.917Z,75.66
2022-12-23T18:53:43.603Z,75.32
2022-12-23T18:56:14.351Z,75.09
2022-12-23T18:58:40.939Z,75.24
2022-12-23T19:01:12.410Z,75.95
2022-12-23T19:03:39.228Z,75.64
2022-12-23T19:06:07.501Z,75.74
2022-12-23T19:08:36.261Z,75.70
2022-12-23T19:11:10.415Z,75.57
2022-12-23T19:13:36.903Z,76.03
2022-12-23T19:16:03.614Z,76.01
2022-12-23T19:18:30.058Z,76.17
2022-12-23T19:20:57.033Z,76.23
2022-12-23T19:23:23.624Z,76.21
2022-12-23T19:25:55.165Z,76.80
2022-12-23T19:28:24.004Z,76.74
2022-12-23T19:30:50.811Z,77.08
2022-12-23T19:33:17.757Z,77.67
2022-12-23T20:18:56.334Z,81.91
2022-12-23T20:53:39.496Z,83.24
2022-12-23T20:56:08.907Z,83.02
2022-12-23T20:58:55.334Z,83.18
2022-12-23T21:01:30.575Z,83.48
2022-12-23T21:03:59.119Z,83.58
2022-12-23T21:06:26.650Z,83.22
2022-12-23T21:08:55.792Z,83.66
2022-12-23T21:19:28.468Z,83.56
